Terminal Aerodrome Forecast
Issued by NWS Tulsa, OK

Home | Current Version | Previous Version | Text Only | Print | Product List | Glossary On
Versions: 1 2 3 4 5 6 7 8 9 10 11 12
000
FTUS44 KTSA 061100
TAFFSM
TAF
KFSM 061135Z 0612/0712 18005KT P6SM VCSH BKN050
      TEMPO 0612/0616 3SM -TSRA BKN025CB
     FM061800 15014KT P6SM OVC040
     FM070100 11007KT P6SM OVC050=

USA.gov is the U.S. government's official web portal to all federal, state and local government web resources and services.